createdAt,value
2023-05-06T00:01:00.724Z,4.25
2023-05-06T00:06:06.250Z,4.95
2023-05-06T00:11:07.703Z,4.47
2023-05-06T00:16:09.852Z,4.63
2023-05-06T00:21:11.383Z,4.20
2023-05-06T00:26:14.152Z,3.30
2023-05-06T00:31:15.612Z,4.53
2023-05-06T00:36:17.437Z,4.40
2023-05-06T00:41:18.924Z,3.83
2023-05-06T00:46:20.951Z,3.88
2023-05-06T00:51:22.980Z,4.50
2023-05-06T00:56:25.707Z,4.55
2023-05-06T01:01:29.589Z,4.30
2023-05-06T01:06:54.779Z,4.40
2023-05-06T01:12:24.185Z,4.25
2023-05-06T01:17:28.325Z,4.43
2023-05-06T01:22:31.460Z,2.47
2023-05-06T01:27:32.891Z,2.72
2023-05-06T01:33:11.641Z,4.82
2023-05-06T01:38:42.301Z,4.47
2023-05-06T01:43:47.989Z,3.95
2023-05-06T01:48:53.920Z,4.63
2023-05-06T01:53:57.409Z,2.70
2023-05-06T01:58:59.724Z,4.43
2023-05-06T02:04:01.789Z,5.10
2023-05-06T02:09:04.109Z,3.78
2023-05-06T02:14:08.761Z,3.47
2023-05-06T02:19:12.272Z,5.78
2023-05-06T02:24:13.861Z,2.83
2023-05-06T02:29:15.325Z,4.60
2023-05-06T02:34:17.221Z,5.35
2023-05-06T02:39:18.640Z,6.60
2023-05-06T02:44:20.105Z,6.03
2023-05-06T02:49:21.524Z,6.15
2023-05-06T03:14:25.945Z,5.50
2023-05-06T03:20:12.642Z,3.50
2023-05-06T03:25:20.163Z,2.83
2023-05-06T03:30:22.598Z,6.05
2023-05-06T03:35:27.680Z,5.70
2023-05-06T03:40:32.733Z,5.30
2023-05-06T03:45:34.564Z,4.15
2023-05-06T03:50:38.351Z,3.08
2023-05-06T03:55:40.041Z,7.07
2023-05-06T04:00:41.834Z,6.25
2023-05-06T04:05:43.416Z,4.47
2023-05-06T04:10:47.174Z,6.45
2023-05-06T04:15:56.736Z,2.78
2023-05-06T04:21:03.459Z,7.70
2023-05-06T04:26:07.426Z,6.90
2023-05-06T04:31:14.524Z,6.40
2023-05-06T04:36:19.892Z,7.18
2023-05-06T04:41:35.485Z,5.47
2023-05-06T04:46:37.286Z,7.40
2023-05-06T04:51:38.959Z,7.90
2023-05-06T04:56:40.593Z,7.00
2023-05-06T05:01:44.768Z,6.05
2023-05-06T05:06:46.402Z,8.55
2023-05-06T05:11:49.485Z,8.52
2023-05-06T05:16:51.333Z,10.10
2023-05-06T05:21:52.962Z,6.47
2023-05-06T05:26:56.204Z,9.63
2023-05-06T05:31:58.283Z,11.40
2023-05-06T05:37:00.008Z,7.60
2023-05-06T05:42:02.240Z,11.20
2023-05-06T05:47:03.934Z,9.88
2023-05-06T05:52:07.344Z,6.43
2023-05-06T05:57:09.331Z,8.88
2023-05-06T06:02:11.833Z,10.68
2023-05-06T06:07:13.407Z,10.82
2023-05-06T06:12:18.040Z,10.63
2023-05-06T06:17:20.304Z,10.45
2023-05-06T06:22:23.482Z,7.40
2023-05-06T06:27:25.778Z,8.30
2023-05-06T06:32:27.603Z,8.23
2023-05-06T06:37:29.080Z,9.20
2023-05-06T06:42:30.603Z,9.73
2023-05-06T06:47:41.583Z,9.70
2023-05-06T06:52:43.097Z,9.77
2023-05-06T06:57:44.592Z,9.27
2023-05-06T07:02:48.072Z,11.35
2023-05-06T07:07:49.593Z,9.80
2023-05-06T07:12:51.076Z,10.20
2023-05-06T07:17:52.560Z,8.50
2023-05-06T07:22:54.042Z,9.10
2023-05-06T07:27:55.502Z,8.50
2023-05-06T07:32:57.374Z,14.85
2023-05-06T07:37:58.874Z,10.93
2023-05-06T07:43:00.426Z,13.77
2023-05-06T07:48:01.914Z,11.75
2023-05-06T07:53:03.970Z,14.05
2023-05-06T07:58:05.748Z,13.57
2023-05-06T08:03:07.484Z,10.98
2023-05-06T08:08:08.991Z,12.95
2023-05-06T08:13:11.614Z,12.43
2023-05-06T08:18:21.697Z,14.20
2023-05-06T08:23:24.602Z,8.93
2023-05-06T08:28:26.135Z,12.63
2023-05-06T08:33:27.594Z,13.90
2023-05-06T08:38:29.834Z,14.40
2023-05-06T08:43:33.429Z,15.18
2023-05-06T08:48:35.174Z,11.10
2023-05-06T08:53:37.023Z,14.55
2023-05-06T08:58:48.155Z,15.55
2023-05-06T09:03:50.127Z,13.80
2023-05-06T09:08:51.564Z,14.82
2023-05-06T09:14:17.418Z,16.67
2023-05-06T09:19:20.504Z,11.75
2023-05-06T09:24:22.170Z,13.32
2023-05-06T09:29:23.686Z,13.65
2023-05-06T09:34:25.197Z,14.77
2023-05-06T09:39:27.596Z,10.30
2023-05-06T09:44:29.116Z,13.48
2023-05-06T09:49:31.109Z,14.15
2023-05-06T09:54:33.120Z,12.63
2023-05-06T09:59:36.212Z,11.20
2023-05-06T10:04:40.708Z,12.48
2023-05-06T10:09:42.579Z,15.85
2023-05-06T10:14:44.037Z,13.38
2023-05-06T10:19:46.845Z,14.20
2023-05-06T10:24:55.912Z,11.88
2023-05-06T10:29:59.818Z,14.00
2023-05-06T10:35:08.522Z,11.27
2023-05-06T10:40:11.584Z,10.18
2023-05-06T10:45:15.253Z,10.82
2023-05-06T10:50:27.150Z,7.47
2023-05-06T10:55:35.186Z,9.07
2023-05-06T11:00:39.816Z,8.60
2023-05-06T11:05:54.638Z,8.73
2023-05-06T11:10:56.216Z,8.35
2023-05-06T11:15:58.439Z,8.25
2023-05-06T11:20:59.825Z,8.57
2023-05-06T11:26:01.621Z,7.20
2023-05-06T11:31:03.213Z,7.10
2023-05-06T11:36:05.178Z,8.27
2023-05-06T11:41:07.358Z,8.63
2023-05-06T11:46:08.798Z,11.50
2023-05-06T11:51:10.245Z,12.05
2023-05-06T11:56:11.837Z,12.35
2023-05-06T12:01:13.265Z,12.05
2023-05-06T12:06:14.912Z,10.98
2023-05-06T12:11:16.359Z,10.18
2023-05-06T12:16:18.126Z,10.00
2023-05-06T12:21:24.192Z,11.20
2023-05-06T12:26:30.534Z,10.25
2023-05-06T12:31:32.788Z,11.32
2023-05-06T12:36:42.404Z,11.60
2023-05-06T12:41:45.661Z,9.45
2023-05-06T12:46:52.493Z,9.93
2023-05-06T12:52:11.129Z,8.98
2023-05-06T12:57:13.362Z,11.38
2023-05-06T13:02:15.223Z,8.70
2023-05-06T13:07:16.706Z,9.50
2023-05-06T13:12:18.135Z,7.28
2023-05-06T13:17:19.664Z,11.63
2023-05-06T13:22:21.129Z,12.07
2023-05-06T13:27:22.558Z,11.38
2023-05-06T13:38:52.139Z,11.60
2023-05-06T13:43:56.483Z,13.63
2023-05-06T13:48:57.904Z,13.95
2023-05-06T13:53:59.387Z,13.27
2023-05-06T13:59:00.805Z,14.18
2023-05-06T14:04:02.225Z,12.80
2023-05-06T14:09:04.648Z,14.30
2023-05-06T14:14:06.878Z,14.20
2023-05-06T14:19:08.308Z,13.60
2023-05-06T14:24:10.820Z,12.60
2023-05-06T14:29:12.264Z,14.73
2023-05-06T14:34:13.697Z,13.40
2023-05-06T14:39:18.686Z,11.15
2023-05-06T14:44:20.672Z,11.13
2023-05-06T14:49:22.158Z,14.68
2023-05-06T14:54:23.588Z,12.20
2023-05-06T14:59:25.441Z,14.90
2023-05-06T15:04:27.457Z,13.93
2023-05-06T15:09:28.927Z,13.27
2023-05-06T15:14:30.484Z,11.75
2023-05-06T15:19:33.417Z,12.15
2023-05-06T15:24:35.765Z,10.20
2023-05-06T15:29:38.961Z,13.02
2023-05-06T15:34:40.809Z,13.90
2023-05-06T15:39:42.299Z,10.52
2023-05-06T15:44:43.846Z,9.60
2023-05-06T15:49:52.907Z,11.43
2023-05-06T15:54:59.481Z,12.35
2023-05-06T16:00:01.785Z,13.07
2023-05-06T16:05:06.796Z,11.27
2023-05-06T16:10:08.927Z,12.73
2023-05-06T16:15:10.662Z,11.55
2023-05-06T16:20:12.784Z,13.93
2023-05-06T16:25:14.471Z,10.55
2023-05-06T16:30:16.118Z,15.75
2023-05-06T16:35:17.945Z,12.13
2023-05-06T16:40:20.970Z,12.23
2023-05-06T16:45:47.662Z,12.40
2023-05-06T16:50:49.113Z,8.38
2023-05-06T16:55:50.555Z,12.57
2023-05-06T17:00:54.294Z,12.88
2023-05-06T17:05:55.876Z,13.27
2023-05-06T17:10:57.342Z,10.90
2023-05-06T17:16:03.588Z,11.35
2023-05-06T17:21:08.756Z,12.32
2023-05-06T17:26:10.604Z,12.85
2023-05-06T17:31:12.384Z,13.38
2023-05-06T17:36:14.024Z,12.40
2023-05-06T17:41:15.780Z,11.85
2023-05-06T17:46:19.523Z,13.13
2023-05-06T17:51:21.172Z,12.05
2023-05-06T17:56:22.590Z,14.07
2023-05-06T18:01:24.090Z,13.07
2023-05-06T18:06:26.977Z,13.27
2023-05-06T18:11:28.460Z,18.10
2023-05-06T18:16:30.025Z,11.90
2023-05-06T18:21:33.858Z,11.73
2023-05-06T18:26:44.491Z,9.38
2023-05-06T18:31:46.652Z,10.27
2023-05-06T18:36:48.136Z,9.88
2023-05-06T18:41:49.612Z,9.30
2023-05-06T18:46:51.043Z,10.60
2023-05-06T18:51:54.025Z,8.95
2023-05-06T18:56:55.513Z,8.48
2023-05-06T19:01:57.057Z,7.55
2023-05-06T19:06:58.566Z,8.45
2023-05-06T19:11:59.993Z,7.03
2023-05-06T19:17:03.676Z,6.35
2023-05-06T19:22:05.168Z,7.53
2023-05-06T19:27:06.651Z,7.25
2023-05-06T19:32:08.586Z,8.40
2023-05-06T19:37:10.008Z,7.28
2023-05-06T19:42:11.432Z,8.43
2023-05-06T19:47:13.193Z,8.15
2023-05-06T19:52:14.659Z,8.50
2023-05-06T19:57:16.073Z,5.45
2023-05-06T20:02:17.518Z,8.85
2023-05-06T20:07:20.561Z,7.30
2023-05-06T20:12:23.573Z,8.18
2023-05-06T20:17:25.098Z,8.00
2023-05-06T20:22:27.059Z,6.68
2023-05-06T20:27:28.494Z,8.27
2023-05-06T20:32:30.996Z,6.57
2023-05-06T20:37:36.074Z,5.50
2023-05-06T20:42:37.635Z,5.45
2023-05-06T20:47:39.115Z,5.60
2023-05-06T20:52:40.562Z,5.50
2023-05-06T20:57:43.391Z,4.40
2023-05-06T21:02:44.950Z,5.40
2023-05-06T21:07:46.921Z,5.18
2023-05-06T21:12:49.483Z,5.32
2023-05-06T21:17:51.133Z,5.97
2023-05-06T21:22:52.640Z,6.68
2023-05-06T21:27:54.073Z,7.30
2023-05-06T21:32:55.617Z,8.63
2023-05-06T21:37:57.055Z,9.30
2023-05-06T21:42:58.498Z,7.40
2023-05-06T21:48:00.108Z,7.72
2023-05-06T21:53:01.569Z,8.80
2023-05-06T22:03:04.431Z,4.88
2023-05-06T22:08:06.562Z,7.35
2023-05-06T22:13:08.130Z,7.55
2023-05-06T22:18:10.245Z,4.43
2023-05-06T22:23:12.349Z,6.03
2023-05-06T22:28:13.792Z,6.07
2023-05-06T22:33:15.238Z,7.22
2023-05-06T22:38:16.656Z,7.28
2023-05-06T22:43:18.068Z,7.43
2023-05-06T22:48:19.483Z,7.15
2023-05-06T22:53:20.897Z,8.23
2023-05-06T22:58:22.367Z,4.93
2023-05-06T23:03:23.932Z,7.22
2023-05-06T23:08:25.453Z,4.25
2023-05-06T23:13:27.193Z,3.90
2023-05-06T23:18:28.659Z,3.85
2023-05-06T23:23:30.094Z,7.18
2023-05-06T23:28:31.559Z,8.57
2023-05-06T23:33:33.005Z,8.55
2023-05-06T23:38:34.420Z,7.97
2023-05-06T23:43:35.846Z,9.23
2023-05-06T23:48:37.994Z,7.07
2023-05-06T23:53:40.185Z,10.43
2023-05-06T23:58:41.607Z,6.18
